Terminal Aerodrome Forecast
Issued by NWS

Home | Current Version | Previous Version | Text Only | Print | Product List | Glossary On
Versions: 1 2 3 4 5 6 7 8 9 10 11 12 13 14 15 16 17 18 19 20 21 22 23 24 25 26
000
FTUS41 KOKX 010800 AAA
TAFHPN
TAF AMD
KHPN 010809Z 0108/0206 03006KT P6SM -RA OVC012
     FM011600 02008KT P6SM SCT015 OVC020
     FM011900 03009KT P6SM SCT015 OVC050
     FM020200 02008KT P6SM OVC012
      AMD NOT SKED=

USA.gov is the U.S. government's official web portal to all federal, state and local government web resources and services.